Aviation Digital Data Service (ADDS)

Output produced by METARs form (0028 UTC 25 November 2014)
found at http://aviationweather.gov/adds/metars/
 
KBAF 242323Z 2500/2524 19011KT P6SM BKN015 
     FM250800 23013KT P6SM SCT025 
     FM251600 25009KT P6SM SCT110